Time;durP1;ratioP1;P1;durP2;ratioP2;P2;SDS_P1;SDS_P2;PMS_P1;PMS_P2;Temp;Humidity;BMP_temperature;BMP_pressure;BME280_temperature;BME280_humidity;BME280_pressure;Samples;Min_cycle;Max_cycle;Signal;HPM_P1;HPM_P2
2021/01/01 00:00:16;;;;;;;352.60;47.78;;;;;;;;;;8158603;28;20434;-72
2021/01/01 00:04:19;;;;;;;459.58;96.32;;;;;;;;;;8157757;28;20372;-73
2021/01/01 00:08:23;;;;;;;227.52;41.60;;;;;;;;;;8159466;28;20054;-73
2021/01/01 00:12:26;;;;;;;256.83;39.13;;;;;;;;;;8159911;28;20417;-73
2021/01/01 00:16:29;;;;;;;110.07;26.50;;;;;;;;;;8158240;28;20515;-72
2021/01/01 00:20:32;;;;;;;126.00;28.75;;;;;;;;;;8159768;28;20372;-73
2021/01/01 00:24:35;;;;;;;129.35;28.25;;;;;;;;;;8160210;28;20073;-72
2021/01/01 00:28:44;;;;;;;134.65;25.48;;;;;;;;;;8160361;28;20363;-72
2021/01/01 00:32:47;;;;;;;112.90;25.58;;;;;;;;;;8160641;28;20362;-73
2021/01/01 00:36:50;;;;;;;124.68;25.60;;;;;;;;;;8160416;28;20457;-72
2021/01/01 00:40:53;;;;;;;132.70;29.00;;;;;;;;;;8158240;28;20405;-73
2021/01/01 00:44:56;;;;;;;135.52;28.55;;;;;;;;;;8157798;28;20042;-72
2021/01/01 00:49:00;;;;;;;151.90;31.98;;;;;;;;;;8159764;28;20503;-72
2021/01/01 00:53:03;;;;;;;114.25;33.58;;;;;;;;;;8159745;28;20485;-73
2021/01/01 00:57:06;;;;;;;97.05;30.25;;;;;;;;;;8159839;28;20065;-73
2021/01/01 01:01:10;;;;;;;93.22;28.08;;;;;;;;;;8159412;28;20377;-72
2021/01/01 01:05:13;;;;;;;113.57;31.63;;;;;;;;;;8163323;28;20464;-73
2021/01/01 01:09:16;;;;;;;134.02;30.90;;;;;;;;;;8165173;28;20424;-73
2021/01/01 01:13:22;;;;;;;104.32;31.88;;;;;;;;;;8165370;28;20516;-73
2021/01/01 01:17:25;;;;;;;115.13;34.35;;;;;;;;;;8164863;28;20418;-73
2021/01/01 01:21:29;;;;;;;103.05;32.17;;;;;;;;;;8165287;28;20477;-73
2021/01/01 01:25:32;;;;;;;129.00;34.85;;;;;;;;;;8163499;28;20080;-72
2021/01/01 01:29:35;;;;;;;117.97;32.83;;;;;;;;;;8162922;28;20369;-73
2021/01/01 01:33:38;;;;;;;102.28;29.00;;;;;;;;;;8164543;28;20351;-73
2021/01/01 01:37:41;;;;;;;131.15;28.17;;;;;;;;;;8164360;28;20354;-73
2021/01/01 01:41:44;;;;;;;101.28;32.08;;;;;;;;;;8162743;28;20469;-73
2021/01/01 01:45:48;;;;;;;88.82;30.80;;;;;;;;;;8163212;28;20376;-73
2021/01/01 01:49:52;;;;;;;105.53;28.48;;;;;;;;;;8164633;28;20384;-73
2021/01/01 01:53:56;;;;;;;103.97;30.17;;;;;;;;;;8164256;28;20511;-73
2021/01/01 01:57:59;;;;;;;114.40;28.98;;;;;;;;;;8164124;28;20413;-73
2021/01/01 02:02:02;;;;;;;168.68;28.63;;;;;;;;;;8161884;28;20061;-73
2021/01/01 02:06:05;;;;;;;141.05;30.52;;;;;;;;;;8161815;28;20473;-72
2021/01/01 02:10:10;;;;;;;126.28;29.17;;;;;;;;;;8161578;28;20370;-73
2021/01/01 02:14:13;;;;;;;106.00;32.03;;;;;;;;;;8161377;28;20453;-72
2021/01/01 02:18:41;;;;;;;209.68;47.28;;;;;;;;;;8163148;28;20492;-72
2021/01/01 02:22:45;;;;;;;252.27;50.83;;;;;;;;;;8163605;28;20477;-73
2021/01/01 02:26:48;;;;;;;194.60;43.20;;;;;;;;;;8163085;28;20461;-73
2021/01/01 02:30:51;;;;;;;279.15;51.45;;;;;;;;;;8162543;28;20473;-73
2021/01/01 02:34:55;;;;;;;182.80;44.33;;;;;;;;;;8160834;28;20362;-73
2021/01/01 02:38:59;;;;;;;282.60;50.63;;;;;;;;;;8162810;28;20379;-73
2021/01/01 02:43:02;;;;;;;141.68;35.28;;;;;;;;;;8162823;28;20072;-73
2021/01/01 02:47:06;;;;;;;304.27;31.23;;;;;;;;;;8160479;28;20485;-73
2021/01/01 02:51:09;;;;;;;160.52;36.30;;;;;;;;;;8145357;28;20384;-73
2021/01/01 02:55:12;;;;;;;273.00;44.85;;;;;;;;;;8161676;28;20480;-72
2021/01/01 02:59:16;;;;;;;197.68;36.63;;;;;;;;;;8144119;28;20488;-73
2021/01/01 03:03:19;;;;;;;249.65;41.55;;;;;;;;;;8160292;28;20449;-72
2021/01/01 03:07:22;;;;;;;131.93;34.10;;;;;;;;;;8162325;28;20378;-73
2021/01/01 03:11:25;;;;;;;271.23;34.53;;;;;;;;;;8159930;28;20417;-73
2021/01/01 03:15:28;;;;;;;343.95;66.43;;;;;;;;;;8160453;28;20491;-73
2021/01/01 03:19:32;;;;;;;216.40;37.35;;;;;;;;;;8160093;28;20381;-73
2021/01/01 03:23:35;;;;;;;316.25;34.45;;;;;;;;;;8161107;28;20405;-73
2021/01/01 03:27:38;;;;;;;212.95;34.95;;;;;;;;;;8160495;28;20485;-72
2021/01/01 03:31:42;;;;;;;176.75;33.88;;;;;;;;;;8161276;28;20482;-73
2021/01/01 03:35:45;;;;;;;328.52;44.75;;;;;;;;;;8143222;28;20512;-73
2021/01/01 03:39:48;;;;;;;199.77;36.50;;;;;;;;;;8159256;28;20477;-73
2021/01/01 03:43:52;;;;;;;175.15;31.65;;;;;;;;;;8160545;28;20492;-72
2021/01/01 03:47:55;;;;;;;180.43;33.72;;;;;;;;;;8160102;28;20457;-73
2021/01/01 03:51:58;;;;;;;180.75;34.28;;;;;;;;;;8160593;28;20357;-73
2021/01/01 03:56:01;;;;;;;249.68;36.45;;;;;;;;;;8158441;28;20373;-73
2021/01/01 04:00:05;;;;;;;162.95;36.15;;;;;;;;;;8160122;28;20508;-73
2021/01/01 04:04:14;;;;;;;246.88;35.50;;;;;;;;;;8158942;28;20373;-73
2021/01/01 04:08:18;;;;;;;168.48;37.42;;;;;;;;;;8160090;28;20054;-73
2021/01/01 04:12:21;;;;;;;149.88;34.63;;;;;;;;;;8158216;28;20378;-73
2021/01/01 04:16:24;;;;;;;151.10;33.88;;;;;;;;;;8159181;28;20054;-73
2021/01/01 04:20:27;;;;;;;178.43;32.28;;;;;;;;;;8159420;28;20469;-73
2021/01/01 04:24:30;;;;;;;157.35;34.65;;;;;;;;;;8158344;28;20047;-73
2021/01/01 04:28:33;;;;;;;102.25;32.70;;;;;;;;;;8159394;28;20417;-73
2021/01/01 04:32:36;;;;;;;126.85;34.28;;;;;;;;;;8159594;28;20072;-73
2021/01/01 04:36:39;;;;;;;143.70;35.00;;;;;;;;;;8160003;28;20385;-73
2021/01/01 04:40:42;;;;;;;111.32;32.70;;;;;;;;;;8164655;28;20381;-73
2021/01/01 04:44:45;;;;;;;139.57;31.02;;;;;;;;;;8165414;28;20054;-72
2021/01/01 04:48:48;;;;;;;149.23;31.10;;;;;;;;;;8164625;28;20469;-72
2021/01/01 04:52:57;;;;;;;185.70;32.60;;;;;;;;;;8125879;28;20374;-73
2021/01/01 04:57:01;;;;;;;166.10;34.25;;;;;;;;;;8165288;28;20405;-73
2021/01/01 05:01:05;;;;;;;229.75;40.97;;;;;;;;;;8164634;28;20465;-72
2021/01/01 05:05:12;;;;;;;145.10;32.83;;;;;;;;;;8165188;28;20465;-73
2021/01/01 05:09:15;;;;;;;182.80;25.38;;;;;;;;;;8164455;28;20362;-72
2021/01/01 05:13:20;;;;;;;191.50;25.55;;;;;;;;;;8164828;28;20374;-73
2021/01/01 05:17:36;;;;;;;138.23;30.40;;;;;;;;;;8164663;28;20480;-73
2021/01/01 05:21:40;;;;;;;178.13;25.23;;;;;;;;;;8165075;28;20093;-73
2021/01/01 05:25:44;;;;;;;121.47;24.13;;;;;;;;;;8102429;28;20508;-73
2021/01/01 05:29:57;;;;;;;127.43;25.08;;;;;;;;;;8163011;28;20488;-75
2021/01/01 05:34:10;;;;;;;312.88;50.15;;;;;;;;;;8142278;28;20377;-72
2021/01/01 05:38:21;;;;;;;209.85;42.40;;;;;;;;;;8146796;28;20366;-72
2021/01/01 05:42:24;;;;;;;194.10;23.33;;;;;;;;;;8164377;28;20358;-73
2021/01/01 05:46:27;;;;;;;113.03;21.23;;;;;;;;;;8163833;28;20042;-73
2021/01/01 05:50:32;;;;;;;209.30;42.78;;;;;;;;;;8145594;28;20064;-73
2021/01/01 05:54:37;;;;;;;107.30;30.00;;;;;;;;;;8164063;28;20500;-72
2021/01/01 05:58:41;;;;;;;119.35;22.10;;;;;;;;;;8163414;28;20050;-72
2021/01/01 06:02:46;;;;;;;91.45;21.30;;;;;;;;;;8163480;28;20059;-72
2021/01/01 06:06:53;;;;;;;95.55;18.83;;;;;;;;;;8146593;28;20072;-72
2021/01/01 06:11:05;;;;;;;127.75;19.27;;;;;;;;;;8161814;28;20491;-73
2021/01/01 06:15:11;;;;;;;120.75;19.67;;;;;;;;;;8163637;28;20054;-72
2021/01/01 06:19:14;;;;;;;108.50;21.23;;;;;;;;;;8163512;28;20385;-72
2021/01/01 06:23:26;;;;;;;105.32;22.40;;;;;;;;;;8162676;28;20488;-72
2021/01/01 06:27:33;;;;;;;82.93;17.90;;;;;;;;;;8161209;28;20480;-72
2021/01/01 06:31:36;;;;;;;106.55;23.60;;;;;;;;;;8162810;28;20373;-72
2021/01/01 06:35:43;;;;;;;107.35;19.95;;;;;;;;;;8162195;28;20409;-72
2021/01/01 06:39:46;;;;;;;226.57;49.75;;;;;;;;;;8161382;28;20073;-72
2021/01/01 06:43:55;;;;;;;93.72;18.35;;;;;;;;;;8161115;28;20054;-72
2021/01/01 06:47:58;;;;;;;;;;;;;;;;;;8162603;28;20386;-72
2021/01/01 06:52:17;;;;;;;102.55;18.67;;;;;;;;;;8144455;28;20279;-72
2021/01/01 06:56:20;;;;;;;134.23;19.98;;;;;;;;;;8162434;28;20370;-75
2021/01/01 07:00:45;;;;;;;92.95;23.27;;;;;;;;;;8161239;28;20458;-72
2021/01/01 07:04:50;;;;;;;86.65;28.75;;;;;;;;;;8162374;28;20381;-72
2021/01/01 07:08:53;;;;;;;84.28;19.40;;;;;;;;;;8161578;28;20480;-72
2021/01/01 07:13:18;;;;;;;96.05;18.40;;;;;;;;;;8160302;28;20381;-72
2021/01/01 07:17:23;;;;;;;88.82;15.10;;;;;;;;;;8161061;28;20385;-73
2021/01/01 07:21:26;;;;;;;58.10;16.23;;;;;;;;;;8159233;28;20450;-73
2021/01/01 07:25:39;;;;;;;80.38;19.55;;;;;;;;;;8161459;28;20038;-72
2021/01/01 07:29:42;;;;;;;66.35;17.65;;;;;;;;;;8158114;28;20069;-72
2021/01/01 07:33:47;;;;;;;76.00;14.00;;;;;;;;;;8161391;28;20465;-72
2021/01/01 07:37:52;;;;;;;98.90;34.22;;;;;;;;;;8160853;28;20385;-72
2021/01/01 07:42:16;;;;;;;86.60;30.92;;;;;;;;;;8159189;28;20376;-72
2021/01/01 07:46:19;;;;;;;45.70;15.27;;;;;;;;;;8158995;28;20412;-73
2021/01/01 07:50:23;;;;;;;54.30;20.45;;;;;;;;;;8158838;28;20072;-72
2021/01/01 07:54:26;;;;;;;48.60;18.50;;;;;;;;;;8160125;28;20531;-72
2021/01/01 07:58:32;;;;;;;43.03;16.83;;;;;;;;;;8159169;28;20077;-72
2021/01/01 08:02:36;;;;;;;33.38;15.30;;;;;;;;;;8158492;28;20389;-73
2021/01/01 08:06:40;;;;;;;41.90;18.40;;;;;;;;;;8158316;28;20466;-72
2021/01/01 08:10:45;;;;;;;37.10;16.83;;;;;;;;;;8142519;28;20050;-72
2021/01/01 08:14:50;;;;;;;34.92;16.48;;;;;;;;;;8158844;28;20377;-72
2021/01/01 08:18:53;;;;;;;40.35;14.55;;;;;;;;;;8160526;28;20369;-72
2021/01/01 08:22:56;;;;;;;36.17;16.35;;;;;;;;;;8159593;28;20470;-72
2021/01/01 08:26:59;;;;;;;39.13;16.75;;;;;;;;;;8159693;28;20413;-72
2021/01/01 08:31:06;;;;;;;31.77;15.68;;;;;;;;;;8142233;28;20376;-72
2021/01/01 08:35:10;;;;;;;31.38;13.95;;;;;;;;;;8158521;28;20478;-72
2021/01/01 08:39:14;;;;;;;25.15;12.95;;;;;;;;;;8159341;28;20135;-72
2021/01/01 08:43:18;;;;;;;30.02;12.20;;;;;;;;;;8157532;28;20080;-72
2021/01/01 08:47:21;;;;;;;33.58;14.95;;;;;;;;;;8157683;28;20054;-73
2021/01/01 08:51:33;;;;;;;26.35;12.05;;;;;;;;;;8156845;28;20480;-73
2021/01/01 08:55:36;;;;;;;32.05;15.07;;;;;;;;;;8157361;28;20381;-72
2021/01/01 08:59:39;;;;;;;29.77;14.05;;;;;;;;;;8157546;28;20393;-72
2021/01/01 09:03:44;;;;;;;28.75;13.30;;;;;;;;;;8158958;28;20413;-72
2021/01/01 09:07:47;;;;;;;771.75;273.42;;;;;;;;;;8158839;28;20393;-72
2021/01/01 09:11:50;;;;;;;67.85;27.70;;;;;;;;;;8156909;28;20369;-72
2021/01/01 09:16:09;;;;;;;33.40;14.57;;;;;;;;;;8158782;28;20380;-73
2021/01/01 09:20:14;;;;;;;29.20;14.70;;;;;;;;;;8157477;28;20073;-73
2021/01/01 09:24:24;;;;;;;27.15;12.65;;;;;;;;;;8161311;28;20363;-72
2021/01/01 09:28:27;;;;;;;29.77;14.80;;;;;;;;;;8162080;28;20495;-73
2021/01/01 09:32:30;;;;;;;28.48;11.95;;;;;;;;;;8162849;28;20073;-72
2021/01/01 09:36:38;;;;;;;32.05;14.43;;;;;;;;;;8137663;28;20354;-73
2021/01/01 09:40:41;;;;;;;;;;;;;;;;;;8132793;28;20373;-73
2021/01/01 09:44:44;;;;;;;32.70;12.88;;;;;;;;;;8162303;28;20254;-73
2021/01/01 09:48:47;;;;;;;34.17;13.93;;;;;;;;;;8164319;28;20387;-73
2021/01/01 09:52:52;;;;;;;34.38;14.32;;;;;;;;;;8161607;28;20381;-73
2021/01/01 09:56:55;;;;;;;32.92;15.07;;;;;;;;;;8163782;28;20384;-73
2021/01/01 10:01:00;;;;;;;35.58;14.88;;;;;;;;;;8163193;28;20381;-73
2021/01/01 10:05:05;;;;;;;38.90;16.17;;;;;;;;;;8161432;28;20355;-73
2021/01/01 10:09:08;;;;;;;35.08;16.20;;;;;;;;;;8145757;28;20461;-73
2021/01/01 10:13:12;;;;;;;42.97;15.13;;;;;;;;;;8163353;28;20462;-73
2021/01/01 10:17:15;;;;;;;35.05;15.45;;;;;;;;;;8161691;28;20046;-73
2021/01/01 10:21:21;;;;;;;36.25;14.65;;;;;;;;;;8162803;28;20358;-73
2021/01/01 10:25:25;;;;;;;56.40;17.77;;;;;;;;;;8163362;28;20377;-73
2021/01/01 10:29:29;;;;;;;35.97;14.63;;;;;;;;;;8162883;28;20413;-73
2021/01/01 10:33:32;;;;;;;49.95;17.08;;;;;;;;;;8162067;28;20489;-73
2021/01/01 10:37:36;;;;;;;57.90;19.48;;;;;;;;;;8160873;28;20094;-73
2021/01/01 10:41:40;;;;;;;126.10;18.73;;;;;;;;;;8160472;28;20076;-73
2021/01/01 10:45:43;;;;;;;79.63;17.67;;;;;;;;;;8161972;28;20493;-73
2021/01/01 10:49:46;;;;;;;129.15;17.38;;;;;;;;;;8162099;28;20354;-73
2021/01/01 10:53:49;;;;;;;55.58;17.52;;;;;;;;;;8162139;28;20453;-73
2021/01/01 10:57:52;;;;;;;52.75;16.98;;;;;;;;;;8159976;28;20492;-74
2021/01/01 11:01:57;;;;;;;46.03;17.17;;;;;;;;;;8161785;28;20367;-73
2021/01/01 11:06:00;;;;;;;54.00;18.20;;;;;;;;;;8116049;28;20371;-74
2021/01/01 11:10:06;;;;;;;52.28;20.02;;;;;;;;;;8041241;28;20371;-73
2021/01/01 11:14:12;;;;;;;48.72;19.52;;;;;;;;;;8173829;28;20196;-73
2021/01/01 12:24:47;;;;;;;747.13;163.73;;;;;;;;;;8159859;28;20491;-73
2021/01/01 12:28:50;;;;;;;472.95;90.93;;;;;;;;;;8159964;28;20487;-73
2021/01/01 12:32:54;;;;;;;268.58;50.13;;;;;;;;;;8158347;28;20388;-73
2021/01/01 12:36:57;;;;;;;556.50;113.20;;;;;;;;;;8159449;28;20069;-74
2021/01/01 12:41:01;;;;;;;81.20;22.65;;;;;;;;;;8158727;28;20377;-74
2021/01/01 12:45:12;;;;;;;279.20;57.50;;;;;;;;;;8158033;28;20484;-73
2021/01/01 12:49:15;;;;;;;49.35;20.02;;;;;;;;;;8157905;28;20077;-73
2021/01/01 12:53:18;;;;;;;50.10;18.52;;;;;;;;;;8136910;28;20384;-74
2021/01/01 12:57:21;;;;;;;101.57;23.45;;;;;;;;;;8137882;28;20479;-73
2021/01/01 13:01:24;;;;;;;176.00;46.40;;;;;;;;;;8165613;28;20054;-74
2021/01/01 13:05:29;;;;;;;60.72;24.10;;;;;;;;;;8165673;28;20376;-74
2021/01/01 13:09:33;;;;;;;137.52;37.30;;;;;;;;;;8163232;28;20397;-74
2021/01/01 13:13:37;;;;;;;267.00;51.65;;;;;;;;;;8165249;28;20501;-72
2021/01/01 13:17:40;;;;;;;244.63;47.30;;;;;;;;;;8165223;28;20409;-72
2021/01/01 13:21:44;;;;;;;688.53;184.35;;;;;;;;;;8164864;28;20486;-72
2021/01/01 13:25:47;;;;;;;156.38;41.75;;;;;;;;;;8163595;28;20385;-72
2021/01/01 13:29:50;;;;;;;365.98;75.70;;;;;;;;;;8164753;28;20477;-72
2021/01/01 13:33:54;;;;;;;158.05;34.65;;;;;;;;;;8163063;28;20457;-73
2021/01/01 13:37:58;;;;;;;131.27;31.10;;;;;;;;;;8145002;28;20378;-74
2021/01/01 13:42:01;;;;;;;120.43;21.30;;;;;;;;;;8132134;28;20387;-72
2021/01/01 13:46:05;;;;;;;632.00;154.55;;;;;;;;;;8124143;28;20466;-73
2021/01/01 13:50:09;;;;;;;128.63;34.42;;;;;;;;;;8142320;28;20386;-72
2021/01/01 13:54:14;;;;;;;316.42;68.18;;;;;;;;;;8141967;28;20445;-74
2021/01/01 13:58:19;;;;;;;227.32;42.10;;;;;;;;;;8136993;28;20389;-73
2021/01/01 14:02:27;;;;;;;310.02;65.80;;;;;;;;;;8127106;28;20172;-73
2021/01/01 14:06:49;;;;;;;103.90;24.10;;;;;;;;;;8129354;28;20046;-73
2021/01/01 14:11:02;;;;;;;83.70;28.02;;;;;;;;;;8122844;28;20477;-74
2021/01/01 14:15:09;;;;;;;104.40;37.30;;;;;;;;;;8121771;28;20446;-70
2021/01/01 14:19:16;;;;;;;113.07;30.65;;;;;;;;;;8149593;28;20452;-73
2021/01/01 14:23:23;;;;;;;189.52;49.03;;;;;;;;;;8114906;28;20437;-73
2021/01/01 14:27:26;;;;;;;133.95;31.67;;;;;;;;;;8126167;28;20484;-71
2021/01/01 14:31:30;;;;;;;112.53;22.13;;;;;;;;;;8117672;28;20505;-71
2021/01/01 14:35:35;;;;;;;94.03;21.80;;;;;;;;;;8125556;28;20387;-72
2021/01/01 14:39:43;;;;;;;214.82;20.55;;;;;;;;;;8108723;28;20482;-73
2021/01/01 14:43:49;;;;;;;199.73;37.07;;;;;;;;;;8142827;28;20096;-72
2021/01/01 14:47:53;;;;;;;264.70;21.73;;;;;;;;;;8126118;28;20457;-72
2021/01/01 14:52:00;;;;;;;204.52;32.40;;;;;;;;;;8124791;28;20397;-72
2021/01/01 14:56:14;;;;;;;241.25;19.50;;;;;;;;;;8144676;28;20073;-71
2021/01/01 15:00:19;;;;;;;294.05;22.65;;;;;;;;;;8126890;28;20499;-71
2021/01/01 15:04:23;;;;;;;290.10;23.98;;;;;;;;;;8127997;28;20370;-71
2021/01/01 15:08:29;;;;;;;193.95;21.83;;;;;;;;;;8153297;28;20367;-72
2021/01/01 15:12:33;;;;;;;183.70;23.23;;;;;;;;;;8134765;28;20497;-74
2021/01/01 15:16:37;;;;;;;213.43;31.90;;;;;;;;;;8138875;28;20370;-73
2021/01/01 15:20:40;;;;;;;139.73;26.58;;;;;;;;;;8124442;28;20458;-73
2021/01/01 15:24:43;;;;;;;186.93;21.52;;;;;;;;;;8132958;28;20487;-71
2021/01/01 15:28:49;;;;;;;179.45;25.90;;;;;;;;;;8135110;28;20501;-73
2021/01/01 15:32:52;;;;;;;176.80;24.92;;;;;;;;;;8141101;28;20486;-74
2021/01/01 15:36:55;;;;;;;148.88;23.77;;;;;;;;;;8140905;28;20051;-71
2021/01/01 15:40:59;;;;;;;187.55;29.15;;;;;;;;;;8117931;28;20406;-73
2021/01/01 15:45:05;;;;;;;196.63;26.45;;;;;;;;;;8131794;28;20491;-73
2021/01/01 15:49:10;;;;;;;256.73;29.52;;;;;;;;;;8144790;28;20495;-71
2021/01/01 15:53:13;;;;;;;160.75;25.52;;;;;;;;;;8134543;28;20461;-72
2021/01/01 15:57:16;;;;;;;193.80;35.67;;;;;;;;;;8137400;28;20043;-73
2021/01/01 16:01:21;;;;;;;162.93;30.35;;;;;;;;;;8125441;28;20058;-71
2021/01/01 16:05:24;;;;;;;143.15;28.88;;;;;;;;;;8125267;28;20429;-73
2021/01/01 16:09:27;;;;;;;171.35;28.42;;;;;;;;;;8158410;28;20399;-73
2021/01/01 16:13:30;;;;;;;166.52;30.77;;;;;;;;;;8158898;28;20477;-72
2021/01/01 16:17:33;;;;;;;107.28;24.00;;;;;;;;;;8131742;28;20050;-72
2021/01/01 16:21:41;;;;;;;124.43;25.10;;;;;;;;;;8125120;28;20466;-71
2021/01/01 16:25:46;;;;;;;90.00;25.67;;;;;;;;;;8116876;28;20461;-72
2021/01/01 16:29:49;;;;;;;79.30;23.05;;;;;;;;;;8143509;28;20393;-70
2021/01/01 16:33:52;;;;;;;86.97;23.77;;;;;;;;;;8142492;28;20483;-72
2021/01/01 16:37:55;;;;;;;107.88;23.48;;;;;;;;;;8160450;28;20072;-73
2021/01/01 16:41:58;;;;;;;116.38;31.88;;;;;;;;;;8157201;28;20360;-73
2021/01/01 16:46:02;;;;;;;103.65;25.23;;;;;;;;;;8165660;28;20080;-73
2021/01/01 16:50:08;;;;;;;99.25;26.80;;;;;;;;;;8164397;28;20386;-73
2021/01/01 16:54:17;;;;;;;133.75;24.55;;;;;;;;;;8166080;28;20046;-73
2021/01/01 16:58:21;;;;;;;122.82;25.45;;;;;;;;;;8162139;28;20381;-72
2021/01/01 17:02:24;;;;;;;108.32;26.13;;;;;;;;;;8161568;28;20382;-71
2021/01/01 17:06:28;;;;;;;88.25;23.73;;;;;;;;;;8164309;28;20042;-70
2021/01/01 17:10:33;;;;;;;125.32;26.55;;;;;;;;;;8134291;28;20970;-70
2021/01/01 17:14:36;;;;;;;194.55;29.52;;;;;;;;;;8131276;28;20374;-72
2021/01/01 17:18:40;;;;;;;163.50;26.00;;;;;;;;;;8131337;28;20382;-71
2021/01/01 17:22:43;;;;;;;155.23;27.23;;;;;;;;;;8131339;28;20077;-71
2021/01/01 17:26:46;;;;;;;145.73;25.15;;;;;;;;;;8146578;28;20484;-71
2021/01/01 17:30:50;;;;;;;164.02;29.33;;;;;;;;;;8130552;28;20466;-72
2021/01/01 17:34:53;;;;;;;209.25;44.08;;;;;;;;;;8129666;28;20397;-71
2021/01/01 17:38:57;;;;;;;446.52;78.63;;;;;;;;;;8132549;28;20496;-71
2021/01/01 17:43:03;;;;;;;395.70;73.95;;;;;;;;;;8128289;28;20073;-72
2021/01/01 17:47:08;;;;;;;246.00;36.85;;;;;;;;;;8131135;28;20386;-71
2021/01/01 17:51:16;;;;;;;826.88;171.30;;;;;;;;;;8130159;28;20469;-70
2021/01/01 17:55:22;;;;;;;247.25;42.95;;;;;;;;;;8130516;28;20466;-70
2021/01/01 17:59:42;;;;;;;232.38;42.65;;;;;;;;;;8114470;28;20508;-70
2021/01/01 18:03:48;;;;;;;173.60;31.60;;;;;;;;;;8128696;28;20773;-72
2021/01/01 18:07:51;;;;;;;259.95;42.88;;;;;;;;;;8129376;28;20473;-71
2021/01/01 18:11:55;;;;;;;202.45;32.85;;;;;;;;;;8127874;28;20381;-72
2021/01/01 18:16:03;;;;;;;195.95;32.85;;;;;;;;;;8128863;28;20573;-71
2021/01/01 18:20:09;;;;;;;177.82;34.88;;;;;;;;;;8128441;28;20507;-71
2021/01/01 18:24:12;;;;;;;177.90;36.28;;;;;;;;;;8130487;28;20385;-71
2021/01/01 18:28:15;;;;;;;138.63;30.33;;;;;;;;;;8128323;28;20409;-72
2021/01/01 18:32:19;;;;;;;234.85;45.47;;;;;;;;;;8126973;28;20043;-72
2021/01/01 18:36:25;;;;;;;215.88;36.80;;;;;;;;;;8145551;28;20061;-71
2021/01/01 18:40:35;;;;;;;136.40;30.23;;;;;;;;;;8141666;28;20465;-73
2021/01/01 18:44:40;;;;;;;232.10;30.77;;;;;;;;;;8129618;28;20377;-70
2021/01/01 18:48:50;;;;;;;222.20;35.42;;;;;;;;;;8130145;28;20474;-70
2021/01/01 18:52:56;;;;;;;209.35;41.50;;;;;;;;;;8126814;28;20393;-71
2021/01/01 18:57:15;;;;;;;159.23;41.60;;;;;;;;;;8158912;28;20473;-70
2021/01/01 19:01:22;;;;;;;190.40;39.83;;;;;;;;;;8159111;28;20042;-70
2021/01/01 19:06:07;;;;;;;173.25;38.30;;;;;;;;;;8158748;28;20487;-70
2021/01/01 19:10:10;;;;;;;149.65;32.00;;;;;;;;;;8163020;28;20507;-72
2021/01/01 19:14:16;;;;;;;157.07;51.15;;;;;;;;;;8141772;28;20389;-72
2021/01/01 19:18:45;;;;;;;121.05;40.97;;;;;;;;;;8139257;28;20465;-71
2021/01/01 19:23:03;;;;;;;133.25;40.78;;;;;;;;;;8150107;28;20046;-71
2021/01/01 19:27:11;;;;;;;445.13;96.82;;;;;;;;;;8153231;28;20481;-70
2021/01/01 19:31:15;;;;;;;197.75;49.85;;;;;;;;;;8139844;28;20373;-70
2021/01/01 19:35:35;;;;;;;249.48;47.38;;;;;;;;;;8131144;28;20462;-72
2021/01/01 19:40:36;;;;;;;456.73;78.30;;;;;;;;;;8137232;28;20489;-69
2021/01/01 19:45:15;;;;;;;283.15;55.03;;;;;;;;;;8135532;28;20369;-70
2021/01/01 19:49:58;;;;;;;282.00;54.40;;;;;;;;;;8147818;28;20503;-70
2021/01/01 19:54:37;;;;;;;219.00;39.50;;;;;;;;;;8142670;28;20492;-70
2021/01/01 19:59:02;;;;;;;481.55;78.20;;;;;;;;;;8127963;28;20373;-72
2021/01/01 20:03:18;;;;;;;251.43;48.28;;;;;;;;;;8137062;28;20050;-70
2021/01/01 20:07:35;;;;;;;563.10;95.40;;;;;;;;;;8129429;28;20500;-71
2021/01/01 20:11:38;;;;;;;104.13;27.88;;;;;;;;;;8152220;28;20351;-70
2021/01/01 20:15:43;;;;;;;100.88;28.98;;;;;;;;;;8137411;28;20635;-72
2021/01/01 20:19:49;;;;;;;292.98;48.28;;;;;;;;;;8145553;28;20132;-72
2021/01/01 20:23:54;;;;;;;525.85;89.22;;;;;;;;;;8132854;28;20511;-70
2021/01/01 20:28:00;;;;;;;1117.60;215.13;;;;;;;;;;8138555;28;20491;-70
2021/01/01 20:32:08;;;;;;;217.30;58.65;;;;;;;;;;8135393;28;20462;-73
2021/01/01 20:36:12;;;;;;;678.60;130.40;;;;;;;;;;8138615;28;20058;-73
2021/01/01 20:40:16;;;;;;;257.27;51.97;;;;;;;;;;8139020;28;20811;-72
2021/01/01 20:44:44;;;;;;;214.27;47.47;;;;;;;;;;8128355;28;20381;-72
2021/01/01 20:49:23;;;;;;;186.77;45.70;;;;;;;;;;8157692;28;20365;-72
2021/01/01 20:57:58;;;;;;;779.05;169.05;;;;;;;;;;8145145;28;20449;-74
2021/01/01 21:02:03;;;;;;;918.45;217.95;;;;;;;;;;8157257;28;20046;-73
2021/01/01 21:06:08;;;;;;;314.45;69.82;;;;;;;;;;8160465;28;20370;-71
2021/01/01 21:10:28;;;;;;;101.53;28.73;;;;;;;;;;8156113;28;20054;-73
2021/01/01 21:15:10;;;;;;;450.65;76.18;;;;;;;;;;8151950;28;20369;-73
2021/01/01 21:19:38;;;;;;;525.97;93.70;;;;;;;;;;8155309;28;20416;-73
2021/01/01 21:24:23;;;;;;;119.80;31.10;;;;;;;;;;8161751;28;20381;-73
2021/01/01 21:29:06;;;;;;;117.95;27.98;;;;;;;;;;8129971;28;20492;-71
2021/01/01 21:33:29;;;;;;;160.10;32.22;;;;;;;;;;8148905;28;20096;-69
2021/01/01 21:38:31;;;;;;;388.73;61.92;;;;;;;;;;8164149;28;20470;-71
2021/01/01 21:42:55;;;;;;;141.52;28.20;;;;;;;;;;8160220;28;20089;-71
2021/01/01 21:47:25;;;;;;;142.77;31.27;;;;;;;;;;8163354;28;20046;-69
2021/01/01 21:51:32;;;;;;;110.65;24.40;;;;;;;;;;8161749;28;20466;-70
2021/01/01 21:55:36;;;;;;;118.78;32.15;;;;;;;;;;8161919;28;20473;-69
2021/01/01 21:59:39;;;;;;;123.45;26.73;;;;;;;;;;8160397;28;20375;-69
2021/01/01 22:03:48;;;;;;;104.95;25.90;;;;;;;;;;8161222;28;20054;-69
2021/01/01 22:07:52;;;;;;;140.68;27.50;;;;;;;;;;8161509;28;20488;-69
2021/01/01 22:11:58;;;;;;;226.95;47.33;;;;;;;;;;8160796;28;20385;-72
2021/01/01 22:16:01;;;;;;;136.25;26.65;;;;;;;;;;8162282;28;20060;-70
2021/01/01 22:20:05;;;;;;;103.45;25.25;;;;;;;;;;8160504;28;20469;-70
2021/01/01 22:24:09;;;;;;;114.38;23.98;;;;;;;;;;8161421;28;20473;-70
2021/01/01 22:28:13;;;;;;;132.65;25.92;;;;;;;;;;8160442;28;20046;-70
2021/01/01 22:32:17;;;;;;;107.70;26.40;;;;;;;;;;8160157;28;20477;-70
2021/01/01 22:36:20;;;;;;;104.32;27.67;;;;;;;;;;8160720;28;20058;-70
2021/01/01 22:40:23;;;;;;;126.25;26.55;;;;;;;;;;8160360;28;20354;-71
2021/01/01 22:44:27;;;;;;;135.65;28.25;;;;;;;;;;8155040;28;20473;-72
2021/01/01 22:48:30;;;;;;;105.90;24.30;;;;;;;;;;8135162;28;20500;-70
2021/01/01 22:52:33;;;;;;;92.88;25.60;;;;;;;;;;8128246;28;20474;-70
2021/01/01 22:56:36;;;;;;;111.18;25.42;;;;;;;;;;8129954;28;20496;-70
2021/01/01 23:00:39;;;;;;;112.38;24.60;;;;;;;;;;8126612;28;20561;-70
2021/01/01 23:04:46;;;;;;;93.50;26.75;;;;;;;;;;8129200;28;20054;-69
2021/01/01 23:08:49;;;;;;;124.55;32.15;;;;;;;;;;8129228;28;20112;-70
2021/01/01 23:12:55;;;;;;;92.10;23.40;;;;;;;;;;8127140;28;20381;-70
2021/01/01 23:17:04;;;;;;;173.30;45.67;;;;;;;;;;8128942;28;20535;-70
2021/01/01 23:21:10;;;;;;;129.73;31.35;;;;;;;;;;8125833;28;20355;-70
2021/01/01 23:25:25;;;;;;;94.90;23.17;;;;;;;;;;8127825;28;20081;-70
2021/01/01 23:30:05;;;;;;;99.93;22.83;;;;;;;;;;8126246;28;20466;-69
2021/01/01 23:34:26;;;;;;;97.00;25.38;;;;;;;;;;8126488;28;20370;-70
2021/01/01 23:39:00;;;;;;;91.05;24.85;;;;;;;;;;8128591;28;20477;-72
2021/01/01 23:43:04;;;;;;;98.25;23.63;;;;;;;;;;8128198;28;20488;-71
2021/01/01 23:47:09;;;;;;;85.40;25.60;;;;;;;;;;8127370;28;20405;-72
2021/01/01 23:51:13;;;;;;;89.53;24.15;;;;;;;;;;8127163;28;20454;-72
2021/01/01 23:55:16;;;;;;;91.43;24.23;;;;;;;;;;8126801;28;20363;-72
2021/01/01 23:59:21;;;;;;;90.78;25.25;;;;;;;;;;8128089;28;20478;-72
